Malden, MA (02148)

10:52 PM EDT on April 30, 2017 (GMT -0400)
Malden | | Change Station

Elev 0 ft 42.43 °N, 71.07 °W | Updated 6 minutes ago

Overcast
Overcast
47.3 °F
Feels Like 47 °F
N
1.2
Wind Variable Wind from ENE
Gusts 3.7 mph

Today
High -- | Low -- °F
--% Chance of Precip.
Yesterday
High -- | Low -- °F
Precip. -- in
Pressure 30.28 in
Visibility 10.0 miles
Clouds Overcast 4800 ft
Windchill 47 °F
Dew Point 39 °F
Humidity 72%
Rainfall 0.21 in
Snow Depth Not available.
5:40 AM 7:43 PM
Waxing Crescent, 28% visible
METAR KBOS 010154Z 13007KT 10SM OVC048 08/03 A3028 RMK AO2 SLP253 T00830033
Pressure 30.28 in
Visibility 10.0 miles
Clouds Overcast 4800 ft
Windchill 47 °F
Dew Point 39 °F
Humidity 72%
Rainfall 0.21 in
Snow Depth Not available.
5:40 AM 7:43 PM
Waxing Crescent, 28% visible
METAR KBOS 010154Z 13007KT 10SM OVC048 08/03 A3028 RMK AO2 SLP253 T00830033

Get Severe Weather Alerts

Thanks for signing up!

Be on the lookout for a verification email in your inbox.

You'll start receiving the daily forecast at 8 AM.

×

10-Day Weather Forecast

Almanac

Astronomy

Apr. 30, 2017 Rise Set
Actual Time
Civil Twilight
Nautical Twilight
Astronomical Twilight
Moon
Length of Visible Light
Length of Day
Tomorrow will be .
, % of the Moon is Illuminated

Today's Extremes

State Highs State Lows

Community

WunderPhotos

WunderBlog® & News

Nearby

Air Quality

  Air Quality AQ Index Pollutant
Not available.

Snow Depth

Station Depth Elevation

Earthquake Activity

City Distance Mag. Time & Date
Minimum magnitude displayed is 2.5.

Coastal Water Temperatures

Place Temperature

Stations

Nearby Weather Stations

Station Location Temp. Windchill Dew Point Humidity Wind Precip. Elev Updated Type
                   

Watches & Warnings

There are currently no watches in effect.